createdAt,value
2019-02-27T00:02:15.986Z,65.01
2019-02-27T00:04:42.065Z,65.05
2019-02-27T00:07:07.961Z,65.02
2019-02-27T00:09:33.921Z,64.95
2019-02-27T00:11:59.978Z,65.06
2019-02-27T00:14:25.888Z,65.11
2019-02-27T00:16:51.840Z,65.21
2019-02-27T00:19:17.997Z,65.16
2019-02-27T00:21:44.356Z,65.20
2019-02-27T00:24:10.205Z,65.21
2019-02-27T00:26:36.194Z,65.18
2019-02-27T00:29:02.154Z,65.21
2019-02-27T00:31:28.113Z,65.26
2019-02-27T00:33:54.211Z,65.29
2019-02-27T00:36:20.050Z,65.23
2019-02-27T00:38:45.937Z,65.18
2019-02-27T00:41:12.950Z,65.23
2019-02-27T00:43:39.132Z,65.30
2019-02-27T00:46:04.993Z,65.20
2019-02-27T00:48:31.058Z,65.19
2019-02-27T00:50:57.027Z,65.38
2019-02-27T00:53:24.577Z,65.22
2019-02-27T00:55:50.804Z,65.34
2019-02-27T00:58:16.659Z,65.35
2019-02-27T01:00:42.620Z,65.28
2019-02-27T01:03:08.591Z,65.20
2019-02-27T01:05:34.439Z,65.22
2019-02-27T01:08:00.419Z,65.14
2019-02-27T01:10:26.558Z,65.17
2019-02-27T01:12:52.819Z,65.22
2019-02-27T01:15:18.877Z,65.22
2019-02-27T01:17:44.931Z,65.24
2019-02-27T01:20:12.054Z,65.17
2019-02-27T01:22:38.077Z,65.12
2019-02-27T01:25:04.555Z,65.05
2019-02-27T01:27:30.395Z,64.99
2019-02-27T01:29:56.300Z,64.93
2019-02-27T01:32:22.372Z,64.94
2019-02-27T01:34:48.229Z,64.99
2019-02-27T01:37:14.072Z,65.02
2019-02-27T01:39:41.787Z,64.96
2019-02-27T01:42:07.866Z,64.88
2019-02-27T01:44:33.833Z,64.95
2019-02-27T01:47:02.394Z,65.10
2019-02-27T01:49:27.554Z,65.09
2019-02-27T01:51:53.432Z,65.11
2019-02-27T01:54:19.635Z,65.05
2019-02-27T01:56:45.475Z,65.10
2019-02-27T01:59:11.343Z,65.05
2019-02-27T02:01:37.696Z,65.13
2019-02-27T02:04:03.653Z,65.12
2019-02-27T02:06:31.939Z,65.09
2019-02-27T02:09:07.934Z,65.06
2019-02-27T02:11:35.034Z,65.03
2019-02-27T02:14:09.538Z,65.04
2019-02-27T02:16:37.301Z,65.01
2019-02-27T02:19:05.399Z,64.99
2019-02-27T02:21:50.166Z,64.94
2019-02-27T02:24:34.561Z,64.95
2019-02-27T02:27:02.453Z,64.90
2019-02-27T02:29:36.228Z,64.95
2019-02-27T02:32:20.574Z,64.92
2019-02-27T02:34:51.136Z,65.00
2019-02-27T02:37:24.834Z,64.94
2019-02-27T02:40:09.093Z,64.98
2019-02-27T02:42:42.880Z,64.97
2019-02-27T02:45:10.628Z,64.93
2019-02-27T02:47:44.537Z,64.92
2019-02-27T02:50:28.847Z,64.92
2019-02-27T02:52:56.713Z,64.92
2019-02-27T02:55:27.627Z,64.93
2019-02-27T02:57:58.617Z,64.92
2019-02-27T03:00:44.353Z,64.90
2019-02-27T03:03:14.893Z,64.92
2019-02-27T03:05:59.924Z,65.05
2019-02-27T03:08:30.747Z,64.95
2019-02-27T03:11:01.522Z,64.82
2019-02-27T03:13:29.294Z,64.78
2019-02-27T03:15:57.188Z,64.65
2019-02-27T03:18:26.188Z,64.53
2019-02-27T03:20:58.002Z,64.30
2019-02-27T03:23:37.941Z,64.07
2019-02-27T03:26:22.496Z,63.90
2019-02-27T03:28:50.270Z,63.70
2019-02-27T03:31:24.100Z,63.49
2019-02-27T03:34:09.208Z,63.32
2019-02-27T03:36:38.971Z,63.18
2019-02-27T03:39:06.816Z,63.15
2019-02-27T03:41:34.574Z,63.10
2019-02-27T03:44:02.501Z,63.09
2019-02-27T03:46:33.036Z,62.99
2019-02-27T03:49:17.339Z,62.91
2019-02-27T03:51:50.922Z,62.88
2019-02-27T03:54:21.302Z,62.90
2019-02-27T03:56:54.344Z,62.85
2019-02-27T03:59:42.659Z,62.86
2019-02-27T04:02:21.668Z,62.78
2019-02-27T04:05:06.851Z,62.68
2019-02-27T04:07:45.915Z,62.65
2019-02-27T04:10:11.946Z,62.66
2019-02-27T04:12:37.904Z,62.56
2019-02-27T04:15:05.687Z,62.36
2019-02-27T04:17:31.556Z,62.38
2019-02-27T04:19:57.530Z,62.18
2019-02-27T04:22:23.788Z,62.22
2019-02-27T04:24:49.749Z,62.27
2019-02-27T04:27:20.090Z,62.28
2019-02-27T04:29:43.310Z,62.23
2019-02-27T04:32:12.089Z,62.18
2019-02-27T04:34:37.007Z,62.23
2019-02-27T04:37:02.873Z,62.05
2019-02-27T04:39:28.956Z,62.04
2019-02-27T04:41:54.854Z,62.08
2019-02-27T04:44:20.686Z,61.95
2019-02-27T04:46:46.725Z,61.83
2019-02-27T04:49:12.607Z,61.57
2019-02-27T04:51:38.497Z,61.58
2019-02-27T04:54:07.308Z,61.49
2019-02-27T04:56:32.175Z,61.29
2019-02-27T04:58:58.018Z,61.30
2019-02-27T05:01:24.006Z,61.10
2019-02-27T05:03:49.896Z,61.08
2019-02-27T05:06:15.765Z,61.07
2019-02-27T05:08:41.902Z,60.98
2019-02-27T05:11:07.811Z,60.96
2019-02-27T05:13:34.591Z,60.79
2019-02-27T05:16:00.697Z,60.66
2019-02-27T05:18:29.275Z,60.52
2019-02-27T05:20:54.340Z,60.51
2019-02-27T05:23:20.397Z,60.47
2019-02-27T05:25:46.388Z,60.42
2019-02-27T05:28:12.261Z,60.49
2019-02-27T05:30:38.267Z,60.48
2019-02-27T05:33:04.103Z,60.37
2019-02-27T05:35:29.960Z,60.16
2019-02-27T05:37:56.048Z,60.04
2019-02-27T05:40:23.125Z,59.96
2019-02-27T05:42:49.703Z,59.79
2019-02-27T05:45:15.709Z,59.81
2019-02-27T05:47:44.742Z,59.72
2019-02-27T05:50:10.238Z,59.39
2019-02-27T05:52:36.189Z,59.42
2019-02-27T05:55:06.129Z,59.33
2019-02-27T05:57:31.375Z,59.33
2019-02-27T06:00:02.210Z,59.28
2019-02-27T06:02:25.599Z,59.33
2019-02-27T06:04:51.506Z,59.33
2019-02-27T06:07:19.018Z,59.21
2019-02-27T06:09:45.167Z,59.24
2019-02-27T06:12:11.013Z,59.28
2019-02-27T06:14:36.972Z,59.32
2019-02-27T06:17:03.020Z,59.32
2019-02-27T06:19:30.590Z,59.33
2019-02-27T06:21:56.937Z,59.30
2019-02-27T06:24:22.778Z,59.37
2019-02-27T06:26:48.803Z,59.39
2019-02-27T06:29:14.838Z,59.43
2019-02-27T06:31:40.784Z,59.46
2019-02-27T06:34:06.662Z,59.23
2019-02-27T06:36:32.713Z,59.26
2019-02-27T06:39:00.325Z,59.38
2019-02-27T06:41:26.439Z,59.27
2019-02-27T06:43:52.350Z,59.22
2019-02-27T06:46:20.091Z,59.18
2019-02-27T06:48:45.904Z,59.10
2019-02-27T06:51:11.953Z,59.12
2019-02-27T06:53:38.056Z,59.02
2019-02-27T06:56:04.115Z,59.08
2019-02-27T06:58:30.139Z,59.00
2019-02-27T07:00:56.025Z,58.88
2019-02-27T07:03:21.981Z,58.91
2019-02-27T07:05:48.129Z,58.73
2019-02-27T07:08:14.684Z,58.73
2019-02-27T07:10:40.553Z,58.81
2019-02-27T07:13:06.529Z,58.74
2019-02-27T07:15:32.414Z,58.70
2019-02-27T07:17:58.340Z,58.79
2019-02-27T07:20:25.285Z,58.75
2019-02-27T07:22:51.296Z,58.88
2019-02-27T07:25:17.354Z,58.85
2019-02-27T07:27:43.392Z,58.76
2019-02-27T07:30:11.179Z,58.77
2019-02-27T07:32:37.155Z,58.66
2019-02-27T07:35:04.033Z,58.67
2019-02-27T07:37:29.910Z,58.66
2019-02-27T07:39:55.788Z,58.63
2019-02-27T07:42:21.923Z,58.65
2019-02-27T07:44:47.785Z,58.68
2019-02-27T07:47:13.638Z,58.56
2019-02-27T07:49:39.602Z,58.52
2019-02-27T07:52:05.620Z,58.56
2019-02-27T07:54:31.704Z,58.63
2019-02-27T07:56:57.728Z,58.61
2019-02-27T07:59:23.629Z,58.53
2019-02-27T08:01:49.467Z,58.44
2019-02-27T08:04:19.055Z,58.33
2019-02-27T08:06:43.308Z,57.83
2019-02-27T08:09:09.299Z,57.65
2019-02-27T08:11:35.329Z,57.74
2019-02-27T08:14:03.257Z,57.76
2019-02-27T08:16:28.966Z,57.63
2019-02-27T08:18:55.052Z,57.58
2019-02-27T08:21:20.939Z,57.55
2019-02-27T08:23:46.809Z,57.62
2019-02-27T08:26:12.844Z,57.55
2019-02-27T08:28:38.741Z,57.58
2019-02-27T08:31:04.691Z,57.67
2019-02-27T08:33:30.760Z,57.63
2019-02-27T08:35:57.996Z,57.45
2019-02-27T08:38:23.805Z,57.27
2019-02-27T08:40:49.849Z,57.15
2019-02-27T08:43:15.763Z,57.26
2019-02-27T08:45:41.594Z,57.37
2019-02-27T08:48:07.634Z,57.42
2019-02-27T08:50:33.509Z,57.35
2019-02-27T08:52:59.370Z,57.21
2019-02-27T08:55:25.567Z,56.98
2019-02-27T08:57:56.015Z,57.12
2019-02-27T09:00:27.164Z,57.19
2019-02-27T09:02:55.324Z,57.21
2019-02-27T09:05:21.096Z,57.03
2019-02-27T09:07:47.258Z,57.00
2019-02-27T09:10:14.114Z,56.92
2019-02-27T09:12:40.330Z,56.97
2019-02-27T09:15:07.508Z,57.08
2019-02-27T09:17:33.392Z,56.92
2019-02-27T09:19:59.284Z,56.95
2019-02-27T09:22:25.465Z,56.90
2019-02-27T09:24:51.314Z,56.96
2019-02-27T09:27:17.189Z,56.92
2019-02-27T09:29:43.138Z,56.96
2019-02-27T09:32:09.281Z,56.94
2019-02-27T09:34:36.914Z,56.92
2019-02-27T09:37:03.056Z,56.78
2019-02-27T09:39:31.256Z,56.58
2019-02-27T09:41:56.599Z,56.60
2019-02-27T09:44:22.625Z,56.61
2019-02-27T09:46:49.877Z,56.42
2019-02-27T09:49:16.185Z,56.30
2019-02-27T09:51:42.226Z,56.33
2019-02-27T09:54:08.205Z,56.37
2019-02-27T09:56:34.070Z,56.33
2019-02-27T09:59:00.211Z,56.36
2019-02-27T10:01:26.059Z,56.36
2019-02-27T10:03:54.625Z,56.07
2019-02-27T10:06:19.901Z,56.08
2019-02-27T10:08:45.880Z,55.99
2019-02-27T10:11:11.771Z,56.06
2019-02-27T10:13:38.524Z,55.88
2019-02-27T10:16:04.606Z,55.98
2019-02-27T10:18:30.521Z,56.11
2019-02-27T10:20:57.653Z,56.16
2019-02-27T10:23:23.654Z,56.02
2019-02-27T10:25:49.997Z,55.85
2019-02-27T10:28:16.222Z,55.96
2019-02-27T10:30:42.197Z,56.02
2019-02-27T10:33:11.146Z,55.91
2019-02-27T10:35:35.992Z,55.88
2019-02-27T10:38:01.975Z,55.91
2019-02-27T10:40:27.965Z,55.90
2019-02-27T10:42:53.912Z,55.80
2019-02-27T10:45:19.787Z,55.80
2019-02-27T10:47:45.666Z,55.55
2019-02-27T10:50:12.609Z,55.55
2019-02-27T10:52:38.575Z,55.38
2019-02-27T10:55:11.348Z,55.40
2019-02-27T10:57:38.412Z,55.34
2019-02-27T11:00:06.082Z,55.42
2019-02-27T11:02:31.992Z,55.05
2019-02-27T11:04:57.936Z,55.05
2019-02-27T11:07:23.802Z,54.97
2019-02-27T11:09:49.795Z,55.05
2019-02-27T11:12:15.759Z,55.15
2019-02-27T11:14:41.844Z,55.09
2019-02-27T11:17:07.816Z,54.87
2019-02-27T11:19:34.878Z,54.86
2019-02-27T11:22:00.917Z,54.84
2019-02-27T11:24:26.782Z,54.51
2019-02-27T11:26:52.957Z,54.29
2019-02-27T11:29:23.589Z,54.52
2019-02-27T11:31:46.991Z,54.60
2019-02-27T11:34:13.047Z,54.54
2019-02-27T11:36:39.645Z,54.51
2019-02-27T11:39:05.722Z,54.28
2019-02-27T11:41:31.868Z,54.27
2019-02-27T11:43:57.921Z,54.39
2019-02-27T11:46:23.811Z,54.36
2019-02-27T11:48:49.772Z,54.39
2019-02-27T11:51:17.495Z,54.19
2019-02-27T11:53:43.437Z,54.09
2019-02-27T11:56:09.507Z,53.74
2019-02-27T11:58:38.517Z,53.80
2019-02-27T12:01:04.687Z,53.81
2019-02-27T12:03:30.822Z,53.91
2019-02-27T12:05:56.787Z,53.79
2019-02-27T12:08:25.791Z,53.72
2019-02-27T12:10:50.525Z,53.70
2019-02-27T12:13:16.389Z,53.56
2019-02-27T12:15:43.586Z,53.49
2019-02-27T12:18:10.267Z,53.21
2019-02-27T12:20:36.111Z,53.32
2019-02-27T12:23:02.123Z,53.27
2019-02-27T12:25:30.150Z,53.30
2019-02-27T12:27:56.337Z,53.45
2019-02-27T12:30:26.035Z,53.53
2019-02-27T12:32:55.587Z,53.60
2019-02-27T12:35:20.973Z,53.69
2019-02-27T12:37:46.950Z,53.72
2019-02-27T12:40:14.281Z,53.40
2019-02-27T12:42:42.514Z,53.38
2019-02-27T12:45:09.752Z,53.00
2019-02-27T12:47:37.612Z,52.86
2019-02-27T12:50:05.188Z,52.84
2019-02-27T12:52:31.097Z,52.88
2019-02-27T12:54:59.096Z,52.90
2019-02-27T12:57:24.834Z,52.77
2019-02-27T12:59:50.769Z,52.94
2019-02-27T13:02:16.819Z,52.93
2019-02-27T13:04:42.710Z,52.92
2019-02-27T13:07:10.716Z,52.85
2019-02-27T13:09:36.509Z,52.67
2019-02-27T13:12:02.447Z,52.73
2019-02-27T13:14:28.298Z,52.62
2019-02-27T13:16:54.369Z,52.54
2019-02-27T13:19:20.355Z,52.63
2019-02-27T13:21:46.313Z,52.51
2019-02-27T13:24:15.079Z,52.41
2019-02-27T13:26:39.986Z,52.56
2019-02-27T13:29:05.956Z,52.51
2019-02-27T13:31:31.923Z,52.67
2019-02-27T13:33:57.825Z,52.64
2019-02-27T13:36:23.771Z,52.78
2019-02-27T13:38:52.171Z,52.80
2019-02-27T13:41:17.659Z,52.89
2019-02-27T13:43:43.636Z,52.76
2019-02-27T13:46:09.579Z,52.81
2019-02-27T13:48:37.405Z,52.95
2019-02-27T13:51:03.349Z,52.89
2019-02-27T13:53:29.392Z,52.91
2019-02-27T13:55:55.270Z,53.03
2019-02-27T13:58:21.107Z,52.94
2019-02-27T14:00:47.197Z,52.60
2019-02-27T14:03:13.420Z,52.74
2019-02-27T14:05:39.238Z,52.83
2019-02-27T14:08:05.299Z,53.00
2019-02-27T14:10:32.173Z,53.08
2019-02-27T14:12:58.160Z,52.93
2019-02-27T14:15:26.732Z,53.01
2019-02-27T14:17:51.953Z,53.02
2019-02-27T14:20:19.946Z,53.19
2019-02-27T14:22:46.103Z,53.22
2019-02-27T14:25:13.897Z,53.26
2019-02-27T14:27:39.833Z,53.29
2019-02-27T14:30:07.721Z,53.38
2019-02-27T14:32:33.615Z,53.37
2019-02-27T14:35:00.515Z,53.43
2019-02-27T14:37:27.367Z,53.32
2019-02-27T14:39:53.308Z,53.44
2019-02-27T14:42:20.492Z,53.36
2019-02-27T14:44:47.047Z,53.32
2019-02-27T14:47:12.906Z,53.24
2019-02-27T14:49:38.849Z,53.18
2019-02-27T14:52:05.034Z,53.27
2019-02-27T14:54:31.032Z,53.41
2019-02-27T14:56:56.969Z,53.41
2019-02-27T14:59:23.144Z,53.48
2019-02-27T15:01:49.441Z,53.59
2019-02-27T15:04:15.374Z,53.65
2019-02-27T15:06:41.830Z,53.72
2019-02-27T15:09:07.783Z,53.69
2019-02-27T15:11:33.658Z,53.61
2019-02-27T15:14:00.691Z,53.56
2019-02-27T15:16:26.634Z,53.58
2019-02-27T15:18:55.004Z,53.59
2019-02-27T15:21:20.510Z,53.66
2019-02-27T15:23:46.358Z,53.75
2019-02-27T15:26:13.677Z,53.78
2019-02-27T15:28:41.648Z,53.80
2019-02-27T15:31:08.322Z,53.86
2019-02-27T15:33:35.890Z,53.83
2019-02-27T15:36:02.129Z,53.94
2019-02-27T15:38:28.094Z,53.79
2019-02-27T15:40:54.327Z,53.83
2019-02-27T15:43:20.296Z,53.91
2019-02-27T15:45:47.987Z,54.06
2019-02-27T15:48:13.977Z,54.09
2019-02-27T15:50:40.071Z,54.06
2019-02-27T15:53:06.015Z,54.17
2019-02-27T15:55:34.249Z,54.19
2019-02-27T15:57:59.606Z,54.15
2019-02-27T16:00:26.054Z,54.11
2019-02-27T16:02:52.201Z,54.14
2019-02-27T16:05:18.287Z,54.00
2019-02-27T16:07:49.634Z,54.05
2019-02-27T16:10:19.726Z,54.14
2019-02-27T16:12:45.597Z,54.13
2019-02-27T16:15:16.944Z,54.16
2019-02-27T16:17:43.339Z,54.24
2019-02-27T16:20:16.143Z,54.23
2019-02-27T16:22:40.947Z,54.31
2019-02-27T16:25:08.523Z,54.36
2019-02-27T16:27:35.374Z,54.29
2019-02-27T16:30:02.988Z,54.28
2019-02-27T16:32:28.980Z,54.32
2019-02-27T16:34:54.852Z,54.45
2019-02-27T16:37:22.808Z,54.50
2019-02-27T16:39:48.474Z,54.46
2019-02-27T16:42:14.338Z,54.37
2019-02-27T16:44:40.294Z,54.47
2019-02-27T16:47:06.239Z,54.33
2019-02-27T16:49:32.198Z,54.22
2019-02-27T16:51:58.067Z,54.38
2019-02-27T16:54:26.611Z,54.39
2019-02-27T16:56:51.696Z,54.43
2019-02-27T16:59:17.545Z,54.35
2019-02-27T17:01:44.458Z,54.28
2019-02-27T17:04:11.423Z,54.40
2019-02-27T17:06:37.305Z,54.41
2019-02-27T17:09:07.033Z,54.42
2019-02-27T17:11:32.574Z,54.45
2019-02-27T17:13:58.978Z,54.44
2019-02-27T17:16:25.046Z,54.40
2019-02-27T17:18:50.882Z,54.41
2019-02-27T17:21:19.457Z,54.48
2019-02-27T17:23:46.681Z,54.28
2019-02-27T17:26:12.299Z,54.44
2019-02-27T17:28:38.281Z,54.46
2019-02-27T17:31:04.332Z,54.44
2019-02-27T17:33:31.531Z,54.52
2019-02-27T17:35:59.256Z,54.56
2019-02-27T17:38:25.310Z,54.59
2019-02-27T17:40:52.462Z,54.66
2019-02-27T17:43:18.416Z,54.60
2019-02-27T17:45:46.944Z,54.63
2019-02-27T17:48:13.042Z,54.69
2019-02-27T17:50:39.060Z,54.75
2019-02-27T17:53:05.035Z,54.78
2019-02-27T17:55:30.893Z,54.69
2019-02-27T17:57:58.420Z,54.66
2019-02-27T18:00:38.751Z,54.66
2019-02-27T18:03:05.815Z,54.65
2019-02-27T18:05:31.837Z,54.74
2019-02-27T18:07:57.982Z,54.76
2019-02-27T18:10:24.040Z,54.73
2019-02-27T18:12:51.606Z,54.75
2019-02-27T18:15:20.367Z,54.72
2019-02-27T18:17:46.063Z,54.67
2019-02-27T18:20:12.144Z,54.82
2019-02-27T18:22:38.222Z,54.85
2019-02-27T18:25:07.438Z,54.81
2019-02-27T18:27:33.544Z,54.89
2019-02-27T18:29:59.919Z,54.93
2019-02-27T18:32:26.484Z,54.93
2019-02-27T18:34:54.561Z,54.93
2019-02-27T18:37:20.255Z,54.94
2019-02-27T18:39:46.213Z,54.98
2019-02-27T18:42:12.061Z,54.97
2019-02-27T18:44:38.366Z,54.91
2019-02-27T18:47:05.795Z,54.91
2019-02-27T18:49:31.650Z,54.99
2019-02-27T18:51:57.658Z,55.06
2019-02-27T18:54:25.167Z,55.10
2019-02-27T18:56:51.284Z,55.09
2019-02-27T18:59:17.379Z,55.06
2019-02-27T19:01:45.101Z,55.03
2019-02-27T19:04:10.980Z,55.07
2019-02-27T19:06:36.989Z,55.11
2019-02-27T19:09:03.439Z,55.02
2019-02-27T19:11:29.293Z,55.11
2019-02-27T19:13:55.449Z,55.17
2019-02-27T19:16:21.536Z,55.20
2019-02-27T19:18:47.506Z,55.23
2019-02-27T19:21:13.649Z,55.22
2019-02-27T19:23:39.605Z,55.20
2019-02-27T19:26:06.415Z,55.25
2019-02-27T19:28:33.476Z,55.23
2019-02-27T19:30:59.428Z,55.25
2019-02-27T19:33:25.685Z,55.23
2019-02-27T19:35:55.960Z,55.28
2019-02-27T19:38:19.589Z,55.29
2019-02-27T19:40:45.564Z,55.33
2019-02-27T19:43:11.632Z,55.33
2019-02-27T19:45:37.576Z,55.30
2019-02-27T19:48:03.732Z,55.34
2019-02-27T19:50:29.842Z,55.29
2019-02-27T19:52:55.885Z,55.34
2019-02-27T19:55:26.535Z,55.30
2019-02-27T19:57:49.782Z,55.29
2019-02-27T20:00:16.854Z,55.36
2019-02-27T20:02:42.704Z,55.39
2019-02-27T20:05:08.843Z,55.45
2019-02-27T20:07:35.830Z,55.45
2019-02-27T20:10:03.143Z,55.44
2019-02-27T20:12:29.388Z,55.35
2019-02-27T20:14:55.432Z,55.37
2019-02-27T20:17:21.304Z,55.46
2019-02-27T20:19:47.348Z,55.47
2019-02-27T20:22:15.440Z,55.50
2019-02-27T20:24:43.040Z,55.42
2019-02-27T20:27:09.138Z,55.51
2019-02-27T20:29:39.249Z,55.54
2019-02-27T20:32:02.739Z,55.57
2019-02-27T20:34:28.831Z,55.52
2019-02-27T20:36:54.781Z,55.56
2019-02-27T20:39:23.175Z,55.61
2019-02-27T20:41:48.696Z,55.56
2019-02-27T20:44:14.760Z,55.58
2019-02-27T20:46:40.635Z,55.63
2019-02-27T20:49:06.617Z,55.58
2019-02-27T20:51:32.472Z,55.60
2019-02-27T20:53:58.314Z,55.66
2019-02-27T20:56:24.259Z,55.72
2019-02-27T20:58:51.968Z,55.74
2019-02-27T21:01:17.899Z,55.78
2019-02-27T21:03:43.934Z,55.79
2019-02-27T21:06:12.766Z,55.83
2019-02-27T21:08:37.471Z,55.86
2019-02-27T21:11:03.669Z,55.79
2019-02-27T21:13:29.462Z,55.90
2019-02-27T21:15:55.304Z,55.93
2019-02-27T21:18:21.325Z,55.99
2019-02-27T21:20:47.188Z,55.98
2019-02-27T21:23:13.156Z,56.04
2019-02-27T21:25:39.189Z,56.06
2019-02-27T21:28:07.658Z,56.11
2019-02-27T21:30:32.820Z,56.05
2019-02-27T21:32:58.860Z,56.11
2019-02-27T21:35:28.738Z,56.16
2019-02-27T21:37:52.703Z,56.20
2019-02-27T21:40:18.824Z,56.24
2019-02-27T21:42:44.774Z,56.25
2019-02-27T21:45:11.850Z,56.32
2019-02-27T21:47:38.074Z,56.33
2019-02-27T21:50:06.981Z,56.37
2019-02-27T21:52:33.059Z,56.38
2019-02-27T21:54:59.061Z,56.36
2019-02-27T21:57:25.614Z,56.41
2019-02-27T21:59:52.100Z,56.43
2019-02-27T22:02:18.153Z,56.38
2019-02-27T22:04:44.733Z,56.48
2019-02-27T22:07:10.561Z,56.51
2019-02-27T22:09:36.687Z,56.53
2019-02-27T22:12:02.651Z,56.57
2019-02-27T22:14:28.528Z,56.58
2019-02-27T22:16:54.472Z,56.62
2019-02-27T22:19:20.433Z,56.61
2019-02-27T22:21:46.325Z,56.65
2019-02-27T22:24:12.273Z,56.69
2019-02-27T22:26:38.435Z,56.68
2019-02-27T22:29:04.311Z,56.69
2019-02-27T22:31:30.317Z,56.72
2019-02-27T22:33:57.008Z,56.71
2019-02-27T22:36:22.874Z,56.80
2019-02-27T22:38:48.982Z,56.84
2019-02-27T22:41:14.860Z,56.84
2019-02-27T22:43:40.704Z,56.92
2019-02-27T22:46:06.649Z,56.90
2019-02-27T22:48:32.525Z,56.89
2019-02-27T22:50:58.438Z,56.89
2019-02-27T22:53:26.202Z,56.94
2019-02-27T22:55:52.056Z,56.99
2019-02-27T22:58:19.635Z,57.05
2019-02-27T23:00:49.682Z,57.04
2019-02-27T23:03:15.750Z,57.00
2019-02-27T23:05:41.788Z,57.02
2019-02-27T23:08:07.998Z,57.06
2019-02-27T23:10:33.838Z,57.10
2019-02-27T23:12:59.825Z,57.13
2019-02-27T23:15:25.983Z,57.15
2019-02-27T23:17:51.926Z,57.20
2019-02-27T23:20:20.871Z,57.22
2019-02-27T23:22:45.730Z,57.24
2019-02-27T23:25:11.711Z,57.24
2019-02-27T23:27:37.654Z,57.27
2019-02-27T23:30:04.970Z,57.27
2019-02-27T23:32:30.955Z,57.30
2019-02-27T23:34:56.800Z,57.36
2019-02-27T23:37:22.851Z,57.36
2019-02-27T23:39:48.740Z,57.38
2019-02-27T23:42:14.589Z,57.38
2019-02-27T23:44:40.571Z,57.41
2019-02-27T23:47:06.615Z,57.43
2019-02-27T23:49:32.488Z,57.52
2019-02-27T23:51:58.498Z,57.53
2019-02-27T23:54:24.480Z,57.54
2019-02-27T23:56:51.848Z,57.54
2019-02-27T23:59:18.121Z,57.54
